sensor_id;sensor_type;location;lat;lon;timestamp;temperature;humidity
18426;DHT22;9340;48.756;9.226;2023-05-16T00:00:37;10.90;99.90
18426;DHT22;9340;48.756;9.226;2023-05-16T00:03:05;10.90;99.90
18426;DHT22;9340;48.756;9.226;2023-05-16T00:05:31;10.90;99.90
18426;DHT22;9340;48.756;9.226;2023-05-16T00:07:58;10.90;99.90
18426;DHT22;9340;48.756;9.226;2023-05-16T00:10:25;11.00;99.90
18426;DHT22;9340;48.756;9.226;2023-05-16T00:12:51;10.90;99.90
18426;DHT22;9340;48.756;9.226;2023-05-16T00:15:18;11.00;99.90
18426;DHT22;9340;48.756;9.226;2023-05-16T00:17:46;10.90;99.90
18426;DHT22;9340;48.756;9.226;2023-05-16T00:20:15;10.90;99.90
18426;DHT22;9340;48.756;9.226;2023-05-16T00:22:43;10.90;99.90
18426;DHT22;9340;48.756;9.226;2023-05-16T00:25:10;10.90;99.90
18426;DHT22;9340;48.756;9.226;2023-05-16T00:27:37;10.90;99.90
18426;DHT22;9340;48.756;9.226;2023-05-16T00:30:04;10.90;99.90
18426;DHT22;9340;48.756;9.226;2023-05-16T00:32:31;10.90;99.90
18426;DHT22;9340;48.756;9.226;2023-05-16T00:34:58;10.80;99.90
18426;DHT22;9340;48.756;9.226;2023-05-16T00:37:26;10.80;99.90
18426;DHT22;9340;48.756;9.226;2023-05-16T00:39:53;10.70;99.90
18426;DHT22;9340;48.756;9.226;2023-05-16T00:42:20;10.70;99.90
18426;DHT22;9340;48.756;9.226;2023-05-16T00:44:47;10.70;99.90
18426;DHT22;9340;48.756;9.226;2023-05-16T00:47:13;10.70;99.90
18426;DHT22;9340;48.756;9.226;2023-05-16T00:49:40;10.70;99.90
18426;DHT22;9340;48.756;9.226;2023-05-16T00:52:07;10.70;99.90
18426;DHT22;9340;48.756;9.226;2023-05-16T00:54:35;10.80;99.90
18426;DHT22;9340;48.756;9.226;2023-05-16T00:57:03;10.80;99.90
18426;DHT22;9340;48.756;9.226;2023-05-16T00:59:31;10.90;99.90
18426;DHT22;9340;48.756;9.226;2023-05-16T01:01:58;10.90;99.90
18426;DHT22;9340;48.756;9.226;2023-05-16T01:04:25;10.90;99.90
18426;DHT22;9340;48.756;9.226;2023-05-16T01:06:54;10.80;99.90
18426;DHT22;9340;48.756;9.226;2023-05-16T01:09:21;10.80;99.90
18426;DHT22;9340;48.756;9.226;2023-05-16T01:11:52;10.90;99.90
18426;DHT22;9340;48.756;9.226;2023-05-16T01:14:28;10.80;99.90
18426;DHT22;9340;48.756;9.226;2023-05-16T01:17:14;10.80;99.90
18426;DHT22;9340;48.756;9.226;2023-05-16T01:19:52;10.80;99.90
18426;DHT22;9340;48.756;9.226;2023-05-16T01:22:29;10.80;99.90
18426;DHT22;9340;48.756;9.226;2023-05-16T01:25:05;10.80;99.90
18426;DHT22;9340;48.756;9.226;2023-05-16T01:27:38;10.70;99.90
18426;DHT22;9340;48.756;9.226;2023-05-16T01:30:16;10.70;99.90
18426;DHT22;9340;48.756;9.226;2023-05-16T01:32:43;10.60;99.90
18426;DHT22;9340;48.756;9.226;2023-05-16T01:35:11;10.50;99.90
18426;DHT22;9340;48.756;9.226;2023-05-16T01:37:41;10.60;99.90
18426;DHT22;9340;48.756;9.226;2023-05-16T01:40:15;10.60;99.90
18426;DHT22;9340;48.756;9.226;2023-05-16T01:42:46;10.60;99.90
18426;DHT22;9340;48.756;9.226;2023-05-16T01:45:21;10.50;99.90
18426;DHT22;9340;48.756;9.226;2023-05-16T01:47:53;10.60;99.90
18426;DHT22;9340;48.756;9.226;2023-05-16T01:50:23;10.60;99.90
18426;DHT22;9340;48.756;9.226;2023-05-16T01:52:55;10.50;99.90
18426;DHT22;9340;48.756;9.226;2023-05-16T01:55:31;10.60;99.90
18426;DHT22;9340;48.756;9.226;2023-05-16T01:58:02;10.70;99.90
18426;DHT22;9340;48.756;9.226;2023-05-16T02:00:30;10.60;99.90
18426;DHT22;9340;48.756;9.226;2023-05-16T02:02:57;10.70;99.90
18426;DHT22;9340;48.756;9.226;2023-05-16T02:05:23;10.70;99.90
18426;DHT22;9340;48.756;9.226;2023-05-16T02:07:50;10.70;99.90
18426;DHT22;9340;48.756;9.226;2023-05-16T02:10:17;10.70;99.90
18426;DHT22;9340;48.756;9.226;2023-05-16T02:12:44;10.70;99.90
18426;DHT22;9340;48.756;9.226;2023-05-16T02:15:12;10.80;99.90
18426;DHT22;9340;48.756;9.226;2023-05-16T02:17:39;10.90;99.90
18426;DHT22;9340;48.756;9.226;2023-05-16T02:20:07;11.00;99.90
18426;DHT22;9340;48.756;9.226;2023-05-16T02:22:34;11.10;99.90
18426;DHT22;9340;48.756;9.226;2023-05-16T02:25:02;11.10;99.90
18426;DHT22;9340;48.756;9.226;2023-05-16T02:27:29;11.20;99.90
18426;DHT22;9340;48.756;9.226;2023-05-16T02:29:56;11.20;99.90
18426;DHT22;9340;48.756;9.226;2023-05-16T02:32:24;11.30;99.90
18426;DHT22;9340;48.756;9.226;2023-05-16T02:34:51;11.30;99.90
18426;DHT22;9340;48.756;9.226;2023-05-16T02:37:18;11.40;99.90
18426;DHT22;9340;48.756;9.226;2023-05-16T02:39:44;11.40;99.90
18426;DHT22;9340;48.756;9.226;2023-05-16T02:42:11;11.50;99.90
18426;DHT22;9340;48.756;9.226;2023-05-16T02:44:37;11.50;99.90
18426;DHT22;9340;48.756;9.226;2023-05-16T02:47:04;11.60;99.90
18426;DHT22;9340;48.756;9.226;2023-05-16T02:49:32;11.60;99.90
18426;DHT22;9340;48.756;9.226;2023-05-16T02:51:59;11.60;99.90
18426;DHT22;9340;48.756;9.226;2023-05-16T02:54:26;11.60;99.90
18426;DHT22;9340;48.756;9.226;2023-05-16T02:56:52;11.70;99.90
18426;DHT22;9340;48.756;9.226;2023-05-16T02:59:19;11.70;99.90
18426;DHT22;9340;48.756;9.226;2023-05-16T03:01:46;11.60;99.90
18426;DHT22;9340;48.756;9.226;2023-05-16T03:04:12;11.60;99.90
18426;DHT22;9340;48.756;9.226;2023-05-16T03:06:40;11.60;99.90
18426;DHT22;9340;48.756;9.226;2023-05-16T03:09:07;11.50;99.90
18426;DHT22;9340;48.756;9.226;2023-05-16T03:11:34;11.50;99.90
18426;DHT22;9340;48.756;9.226;2023-05-16T03:14:00;11.60;99.90
18426;DHT22;9340;48.756;9.226;2023-05-16T03:16:27;11.60;99.90
18426;DHT22;9340;48.756;9.226;2023-05-16T03:18:54;11.60;99.90
18426;DHT22;9340;48.756;9.226;2023-05-16T03:21:20;11.60;99.90
18426;DHT22;9340;48.756;9.226;2023-05-16T03:23:48;11.60;99.90
18426;DHT22;9340;48.756;9.226;2023-05-16T03:26:15;11.60;99.90
18426;DHT22;9340;48.756;9.226;2023-05-16T03:28:41;11.60;99.90
18426;DHT22;9340;48.756;9.226;2023-05-16T03:31:08;11.60;99.90
18426;DHT22;9340;48.756;9.226;2023-05-16T03:33:35;11.40;99.90
18426;DHT22;9340;48.756;9.226;2023-05-16T03:36:02;11.40;99.90
18426;DHT22;9340;48.756;9.226;2023-05-16T03:38:29;11.30;99.90
18426;DHT22;9340;48.756;9.226;2023-05-16T03:40:58;11.10;99.90
18426;DHT22;9340;48.756;9.226;2023-05-16T03:43:25;11.10;99.90
18426;DHT22;9340;48.756;9.226;2023-05-16T03:45:51;11.10;99.90
18426;DHT22;9340;48.756;9.226;2023-05-16T03:48:18;11.10;99.90
18426;DHT22;9340;48.756;9.226;2023-05-16T03:50:45;11.00;99.90
18426;DHT22;9340;48.756;9.226;2023-05-16T03:53:12;11.00;99.90
18426;DHT22;9340;48.756;9.226;2023-05-16T03:55:39;10.90;99.90
18426;DHT22;9340;48.756;9.226;2023-05-16T03:58:07;10.90;99.90
18426;DHT22;9340;48.756;9.226;2023-05-16T04:00:33;10.90;99.90
18426;DHT22;9340;48.756;9.226;2023-05-16T04:03:01;10.90;99.90
18426;DHT22;9340;48.756;9.226;2023-05-16T04:05:28;11.00;99.90
18426;DHT22;9340;48.756;9.226;2023-05-16T04:07:54;11.00;99.90
18426;DHT22;9340;48.756;9.226;2023-05-16T04:10:21;11.10;99.90
18426;DHT22;9340;48.756;9.226;2023-05-16T04:12:49;11.30;99.90
18426;DHT22;9340;48.756;9.226;2023-05-16T04:15:17;11.30;99.90
18426;DHT22;9340;48.756;9.226;2023-05-16T04:17:43;11.40;99.90
18426;DHT22;9340;48.756;9.226;2023-05-16T04:20:11;11.50;99.90
18426;DHT22;9340;48.756;9.226;2023-05-16T04:22:37;11.60;99.90
18426;DHT22;9340;48.756;9.226;2023-05-16T04:25:04;11.60;99.90
18426;DHT22;9340;48.756;9.226;2023-05-16T04:27:31;11.80;99.90
18426;DHT22;9340;48.756;9.226;2023-05-16T04:29:58;11.90;99.90
18426;DHT22;9340;48.756;9.226;2023-05-16T04:32:26;11.90;99.90
18426;DHT22;9340;48.756;9.226;2023-05-16T04:34:54;12.00;99.90
18426;DHT22;9340;48.756;9.226;2023-05-16T04:37:21;12.10;99.90
18426;DHT22;9340;48.756;9.226;2023-05-16T04:39:47;12.20;99.90
18426;DHT22;9340;48.756;9.226;2023-05-16T04:42:14;12.30;99.90
18426;DHT22;9340;48.756;9.226;2023-05-16T04:44:41;12.40;99.90
18426;DHT22;9340;48.756;9.226;2023-05-16T04:47:08;12.50;99.90
18426;DHT22;9340;48.756;9.226;2023-05-16T04:49:36;12.60;99.90
18426;DHT22;9340;48.756;9.226;2023-05-16T04:52:04;12.70;99.90
18426;DHT22;9340;48.756;9.226;2023-05-16T04:54:32;12.80;99.90
18426;DHT22;9340;48.756;9.226;2023-05-16T04:56:58;12.90;99.90
18426;DHT22;9340;48.756;9.226;2023-05-16T04:59:25;12.90;99.90
18426;DHT22;9340;48.756;9.226;2023-05-16T05:01:52;13.10;99.90
18426;DHT22;9340;48.756;9.226;2023-05-16T05:04:19;13.20;99.90
18426;DHT22;9340;48.756;9.226;2023-05-16T05:06:48;13.20;99.90
18426;DHT22;9340;48.756;9.226;2023-05-16T05:09:14;13.40;99.90
18426;DHT22;9340;48.756;9.226;2023-05-16T05:11:41;13.50;99.90
18426;DHT22;9340;48.756;9.226;2023-05-16T05:14:08;13.60;99.90
18426;DHT22;9340;48.756;9.226;2023-05-16T05:16:34;13.60;99.90
18426;DHT22;9340;48.756;9.226;2023-05-16T05:19:01;13.70;99.90
18426;DHT22;9340;48.756;9.226;2023-05-16T05:21:28;13.80;99.90
18426;DHT22;9340;48.756;9.226;2023-05-16T05:23:57;13.90;99.90
18426;DHT22;9340;48.756;9.226;2023-05-16T05:26:23;13.80;99.90
18426;DHT22;9340;48.756;9.226;2023-05-16T05:28:50;13.70;99.90
18426;DHT22;9340;48.756;9.226;2023-05-16T05:31:17;13.60;99.90
18426;DHT22;9340;48.756;9.226;2023-05-16T05:33:43;13.60;99.90
18426;DHT22;9340;48.756;9.226;2023-05-16T05:36:10;13.60;99.90
18426;DHT22;9340;48.756;9.226;2023-05-16T05:38:37;13.70;99.90
18426;DHT22;9340;48.756;9.226;2023-05-16T05:41:05;13.80;99.90
18426;DHT22;9340;48.756;9.226;2023-05-16T05:43:32;13.70;99.90
18426;DHT22;9340;48.756;9.226;2023-05-16T05:45:59;13.80;99.90
18426;DHT22;9340;48.756;9.226;2023-05-16T05:48:25;13.90;99.90
18426;DHT22;9340;48.756;9.226;2023-05-16T05:50:54;13.90;99.90
18426;DHT22;9340;48.756;9.226;2023-05-16T05:53:21;13.90;99.90
18426;DHT22;9340;48.756;9.226;2023-05-16T05:55:47;13.80;99.90
18426;DHT22;9340;48.756;9.226;2023-05-16T05:58:15;13.70;99.90
18426;DHT22;9340;48.756;9.226;2023-05-16T06:00:42;13.80;99.90
18426;DHT22;9340;48.756;9.226;2023-05-16T06:03:09;13.80;99.90
18426;DHT22;9340;48.756;9.226;2023-05-16T06:05:36;13.90;99.90
18426;DHT22;9340;48.756;9.226;2023-05-16T06:08:02;13.90;99.90
18426;DHT22;9340;48.756;9.226;2023-05-16T06:10:29;14.00;99.90
18426;DHT22;9340;48.756;9.226;2023-05-16T06:12:56;14.10;99.90
18426;DHT22;9340;48.756;9.226;2023-05-16T06:15:24;13.90;99.90
18426;DHT22;9340;48.756;9.226;2023-05-16T06:17:51;14.00;99.90
18426;DHT22;9340;48.756;9.226;2023-05-16T06:20:18;14.30;99.90
18426;DHT22;9340;48.756;9.226;2023-05-16T06:22:44;14.60;99.90
18426;DHT22;9340;48.756;9.226;2023-05-16T06:25:11;15.00;99.90
18426;DHT22;9340;48.756;9.226;2023-05-16T06:27:38;15.40;99.90
18426;DHT22;9340;48.756;9.226;2023-05-16T06:30:05;15.80;99.90
18426;DHT22;9340;48.756;9.226;2023-05-16T06:32:34;16.00;99.90
18426;DHT22;9340;48.756;9.226;2023-05-16T06:35:01;16.00;99.90
18426;DHT22;9340;48.756;9.226;2023-05-16T06:37:27;15.90;99.90
18426;DHT22;9340;48.756;9.226;2023-05-16T06:39:54;15.60;99.90
18426;DHT22;9340;48.756;9.226;2023-05-16T06:42:21;15.40;99.90
18426;DHT22;9340;48.756;9.226;2023-05-16T06:44:47;15.20;99.90
18426;DHT22;9340;48.756;9.226;2023-05-16T06:47:14;15.10;99.90
18426;DHT22;9340;48.756;9.226;2023-05-16T06:49:42;15.30;99.90
18426;DHT22;9340;48.756;9.226;2023-05-16T06:52:09;15.60;99.90
18426;DHT22;9340;48.756;9.226;2023-05-16T06:54:36;15.50;99.90
18426;DHT22;9340;48.756;9.226;2023-05-16T06:57:03;15.20;99.90
18426;DHT22;9340;48.756;9.226;2023-05-16T06:59:31;14.90;99.90
18426;DHT22;9340;48.756;9.226;2023-05-16T07:01:57;14.80;99.90
18426;DHT22;9340;48.756;9.226;2023-05-16T07:04:25;14.80;99.90
18426;DHT22;9340;48.756;9.226;2023-05-16T07:06:53;14.70;99.90
18426;DHT22;9340;48.756;9.226;2023-05-16T07:09:20;14.70;99.90
18426;DHT22;9340;48.756;9.226;2023-05-16T07:11:46;14.80;99.90
18426;DHT22;9340;48.756;9.226;2023-05-16T07:14:13;14.90;99.90
18426;DHT22;9340;48.756;9.226;2023-05-16T07:16:40;15.10;99.90
18426;DHT22;9340;48.756;9.226;2023-05-16T07:19:06;15.30;99.90
18426;DHT22;9340;48.756;9.226;2023-05-16T07:21:33;15.50;99.90
18426;DHT22;9340;48.756;9.226;2023-05-16T07:24:01;15.60;99.90
18426;DHT22;9340;48.756;9.226;2023-05-16T07:26:28;15.30;99.90
18426;DHT22;9340;48.756;9.226;2023-05-16T07:28:55;15.40;99.90
18426;DHT22;9340;48.756;9.226;2023-05-16T07:31:22;15.60;99.90
18426;DHT22;9340;48.756;9.226;2023-05-16T07:33:49;15.60;99.90
18426;DHT22;9340;48.756;9.226;2023-05-16T07:36:16;15.60;99.90
18426;DHT22;9340;48.756;9.226;2023-05-16T07:38:43;15.30;99.90
18426;DHT22;9340;48.756;9.226;2023-05-16T07:41:11;15.10;99.90
18426;DHT22;9340;48.756;9.226;2023-05-16T07:43:38;14.80;99.90
18426;DHT22;9340;48.756;9.226;2023-05-16T07:46:04;14.80;99.90
18426;DHT22;9340;48.756;9.226;2023-05-16T07:48:31;14.70;99.90
18426;DHT22;9340;48.756;9.226;2023-05-16T07:50:58;14.70;99.90
18426;DHT22;9340;48.756;9.226;2023-05-16T07:53:25;14.90;99.90
18426;DHT22;9340;48.756;9.226;2023-05-16T07:55:51;15.20;99.90
18426;DHT22;9340;48.756;9.226;2023-05-16T07:58:20;15.40;99.90
18426;DHT22;9340;48.756;9.226;2023-05-16T08:00:47;15.50;99.90
18426;DHT22;9340;48.756;9.226;2023-05-16T08:03:15;15.30;99.90
18426;DHT22;9340;48.756;9.226;2023-05-16T08:05:41;15.40;99.90
18426;DHT22;9340;48.756;9.226;2023-05-16T08:08:08;15.40;99.90
18426;DHT22;9340;48.756;9.226;2023-05-16T08:10:35;15.60;99.90
18426;DHT22;9340;48.756;9.226;2023-05-16T08:13:01;15.90;99.90
18426;DHT22;9340;48.756;9.226;2023-05-16T08:15:29;16.20;99.90
18426;DHT22;9340;48.756;9.226;2023-05-16T08:17:57;16.30;99.90
18426;DHT22;9340;48.756;9.226;2023-05-16T08:20:24;16.10;99.90
18426;DHT22;9340;48.756;9.226;2023-05-16T08:22:51;15.90;99.90
18426;DHT22;9340;48.756;9.226;2023-05-16T08:25:17;15.80;99.90
18426;DHT22;9340;48.756;9.226;2023-05-16T08:27:44;15.50;99.90
18426;DHT22;9340;48.756;9.226;2023-05-16T08:30:12;15.50;99.90
18426;DHT22;9340;48.756;9.226;2023-05-16T08:32:40;15.50;99.90
18426;DHT22;9340;48.756;9.226;2023-05-16T08:35:07;15.40;99.90
18426;DHT22;9340;48.756;9.226;2023-05-16T08:37:35;15.30;99.90
18426;DHT22;9340;48.756;9.226;2023-05-16T08:40:03;15.30;99.90
18426;DHT22;9340;48.756;9.226;2023-05-16T08:42:32;15.00;99.90
18426;DHT22;9340;48.756;9.226;2023-05-16T08:44:59;15.00;99.90
18426;DHT22;9340;48.756;9.226;2023-05-16T08:47:29;15.10;99.90
18426;DHT22;9340;48.756;9.226;2023-05-16T08:49:58;14.90;99.90
18426;DHT22;9340;48.756;9.226;2023-05-16T08:52:26;15.30;99.90
18426;DHT22;9340;48.756;9.226;2023-05-16T08:54:55;15.50;99.90
18426;DHT22;9340;48.756;9.226;2023-05-16T08:57:23;15.50;99.90
18426;DHT22;9340;48.756;9.226;2023-05-16T08:59:50;15.00;99.90
18426;DHT22;9340;48.756;9.226;2023-05-16T09:02:18;14.70;99.90
18426;DHT22;9340;48.756;9.226;2023-05-16T09:04:47;14.80;99.90
18426;DHT22;9340;48.756;9.226;2023-05-16T09:07:16;15.00;99.90
18426;DHT22;9340;48.756;9.226;2023-05-16T09:09:42;14.70;99.90
18426;DHT22;9340;48.756;9.226;2023-05-16T09:12:09;14.60;99.90
18426;DHT22;9340;48.756;9.226;2023-05-16T09:14:36;14.50;99.90
18426;DHT22;9340;48.756;9.226;2023-05-16T09:17:03;14.40;99.90
18426;DHT22;9340;48.756;9.226;2023-05-16T09:19:37;14.10;99.90
18426;DHT22;9340;48.756;9.226;2023-05-16T09:22:06;14.10;99.90
18426;DHT22;9340;48.756;9.226;2023-05-16T09:24:38;14.20;99.90
18426;DHT22;9340;48.756;9.226;2023-05-16T09:27:08;14.40;99.90
18426;DHT22;9340;48.756;9.226;2023-05-16T09:29:35;14.60;99.90
18426;DHT22;9340;48.756;9.226;2023-05-16T09:32:09;14.70;99.90
18426;DHT22;9340;48.756;9.226;2023-05-16T09:34:42;14.80;99.90
18426;DHT22;9340;48.756;9.226;2023-05-16T09:37:10;14.80;99.90
18426;DHT22;9340;48.756;9.226;2023-05-16T09:39:40;14.50;99.90
18426;DHT22;9340;48.756;9.226;2023-05-16T09:42:11;14.60;99.90
18426;DHT22;9340;48.756;9.226;2023-05-16T09:44:39;14.70;99.90
18426;DHT22;9340;48.756;9.226;2023-05-16T09:47:05;14.90;99.90
18426;DHT22;9340;48.756;9.226;2023-05-16T09:49:32;15.20;99.90
18426;DHT22;9340;48.756;9.226;2023-05-16T09:52:00;15.30;99.90
18426;DHT22;9340;48.756;9.226;2023-05-16T09:54:30;14.90;99.90
18426;DHT22;9340;48.756;9.226;2023-05-16T09:56:59;14.90;99.90
18426;DHT22;9340;48.756;9.226;2023-05-16T09:59:28;15.30;99.90
18426;DHT22;9340;48.756;9.226;2023-05-16T10:01:57;15.80;99.90
18426;DHT22;9340;48.756;9.226;2023-05-16T10:04:24;16.00;99.90
18426;DHT22;9340;48.756;9.226;2023-05-16T10:06:52;16.00;99.90
18426;DHT22;9340;48.756;9.226;2023-05-16T10:09:21;15.70;99.90
18426;DHT22;9340;48.756;9.226;2023-05-16T10:11:48;15.50;99.90
18426;DHT22;9340;48.756;9.226;2023-05-16T10:14:18;15.40;99.90
18426;DHT22;9340;48.756;9.226;2023-05-16T10:16:46;15.30;99.90
18426;DHT22;9340;48.756;9.226;2023-05-16T10:19:15;15.30;99.90
18426;DHT22;9340;48.756;9.226;2023-05-16T10:21:47;15.40;99.90
18426;DHT22;9340;48.756;9.226;2023-05-16T10:24:19;15.10;99.90
18426;DHT22;9340;48.756;9.226;2023-05-16T10:26:48;14.80;99.90
18426;DHT22;9340;48.756;9.226;2023-05-16T10:29:17;15.00;99.90
18426;DHT22;9340;48.756;9.226;2023-05-16T10:31:45;15.20;99.90
18426;DHT22;9340;48.756;9.226;2023-05-16T10:34:14;15.30;99.90
18426;DHT22;9340;48.756;9.226;2023-05-16T10:36:42;15.80;99.90
18426;DHT22;9340;48.756;9.226;2023-05-16T10:39:10;16.20;99.90
18426;DHT22;9340;48.756;9.226;2023-05-16T10:41:37;16.70;99.90
18426;DHT22;9340;48.756;9.226;2023-05-16T10:44:12;17.10;99.90
18426;DHT22;9340;48.756;9.226;2023-05-16T10:46:40;17.70;99.90
18426;DHT22;9340;48.756;9.226;2023-05-16T10:49:19;18.10;99.90
18426;DHT22;9340;48.756;9.226;2023-05-16T10:52:01;18.00;99.90
18426;DHT22;9340;48.756;9.226;2023-05-16T10:54:33;17.60;99.90
18426;DHT22;9340;48.756;9.226;2023-05-16T10:57:03;16.90;99.90
18426;DHT22;9340;48.756;9.226;2023-05-16T10:59:39;16.50;99.90
18426;DHT22;9340;48.756;9.226;2023-05-16T11:02:21;16.10;99.90
18426;DHT22;9340;48.756;9.226;2023-05-16T11:04:48;16.00;99.90
18426;DHT22;9340;48.756;9.226;2023-05-16T11:07:17;16.00;99.90
18426;DHT22;9340;48.756;9.226;2023-05-16T11:09:44;16.20;99.90
18426;DHT22;9340;48.756;9.226;2023-05-16T11:12:12;16.30;99.90
18426;DHT22;9340;48.756;9.226;2023-05-16T11:14:39;16.00;99.90
18426;DHT22;9340;48.756;9.226;2023-05-16T11:17:11;15.80;99.90
18426;DHT22;9340;48.756;9.226;2023-05-16T11:19:42;15.50;99.90
18426;DHT22;9340;48.756;9.226;2023-05-16T11:22:23;15.20;99.90
18426;DHT22;9340;48.756;9.226;2023-05-16T11:24:56;15.00;99.90
18426;DHT22;9340;48.756;9.226;2023-05-16T11:27:27;14.60;99.90
18426;DHT22;9340;48.756;9.226;2023-05-16T11:29:58;14.30;99.90
18426;DHT22;9340;48.756;9.226;2023-05-16T11:32:27;14.20;99.90
18426;DHT22;9340;48.756;9.226;2023-05-16T11:34:54;14.20;99.90
18426;DHT22;9340;48.756;9.226;2023-05-16T11:37:21;14.20;99.90
18426;DHT22;9340;48.756;9.226;2023-05-16T11:39:47;14.20;99.90
18426;DHT22;9340;48.756;9.226;2023-05-16T11:42:14;14.20;99.90
18426;DHT22;9340;48.756;9.226;2023-05-16T11:44:42;14.10;99.90
18426;DHT22;9340;48.756;9.226;2023-05-16T11:47:10;14.10;99.90
18426;DHT22;9340;48.756;9.226;2023-05-16T11:49:38;14.00;99.90
18426;DHT22;9340;48.756;9.226;2023-05-16T11:52:07;14.00;99.90
18426;DHT22;9340;48.756;9.226;2023-05-16T11:54:34;13.90;99.90
18426;DHT22;9340;48.756;9.226;2023-05-16T11:57:01;13.80;99.90
18426;DHT22;9340;48.756;9.226;2023-05-16T11:59:28;13.70;99.90
18426;DHT22;9340;48.756;9.226;2023-05-16T12:01:55;13.70;99.90
18426;DHT22;9340;48.756;9.226;2023-05-16T12:04:22;13.70;99.90
18426;DHT22;9340;48.756;9.226;2023-05-16T12:06:59;13.90;99.90
18426;DHT22;9340;48.756;9.226;2023-05-16T12:09:26;13.90;99.90
18426;DHT22;9340;48.756;9.226;2023-05-16T12:11:53;13.90;99.90
18426;DHT22;9340;48.756;9.226;2023-05-16T12:14:20;13.90;99.90
18426;DHT22;9340;48.756;9.226;2023-05-16T12:16:47;13.90;99.90
18426;DHT22;9340;48.756;9.226;2023-05-16T12:19:15;13.80;99.90
18426;DHT22;9340;48.756;9.226;2023-05-16T12:21:42;13.90;99.90
18426;DHT22;9340;48.756;9.226;2023-05-16T12:24:10;14.10;99.90
18426;DHT22;9340;48.756;9.226;2023-05-16T12:26:39;14.20;99.90
18426;DHT22;9340;48.756;9.226;2023-05-16T12:29:08;14.10;99.90
18426;DHT22;9340;48.756;9.226;2023-05-16T12:31:37;14.20;99.90
18426;DHT22;9340;48.756;9.226;2023-05-16T12:34:14;14.40;99.90
18426;DHT22;9340;48.756;9.226;2023-05-16T12:36:41;14.50;99.90
18426;DHT22;9340;48.756;9.226;2023-05-16T12:39:11;14.50;99.90
18426;DHT22;9340;48.756;9.226;2023-05-16T12:41:40;14.40;99.90
18426;DHT22;9340;48.756;9.226;2023-05-16T12:44:10;14.50;99.90
18426;DHT22;9340;48.756;9.226;2023-05-16T12:46:40;14.40;99.90
18426;DHT22;9340;48.756;9.226;2023-05-16T12:49:07;14.40;99.90
18426;DHT22;9340;48.756;9.226;2023-05-16T12:51:34;14.50;99.90
18426;DHT22;9340;48.756;9.226;2023-05-16T12:54:07;14.10;99.90
18426;DHT22;9340;48.756;9.226;2023-05-16T12:56:37;13.90;99.90
18426;DHT22;9340;48.756;9.226;2023-05-16T12:59:03;14.10;99.90
18426;DHT22;9340;48.756;9.226;2023-05-16T13:01:30;13.90;99.90
18426;DHT22;9340;48.756;9.226;2023-05-16T13:03:57;14.10;99.90
18426;DHT22;9340;48.756;9.226;2023-05-16T13:06:24;14.20;99.90
18426;DHT22;9340;48.756;9.226;2023-05-16T13:08:51;14.30;99.90
18426;DHT22;9340;48.756;9.226;2023-05-16T13:11:17;14.40;99.90
18426;DHT22;9340;48.756;9.226;2023-05-16T13:13:45;14.40;99.90
18426;DHT22;9340;48.756;9.226;2023-05-16T13:16:12;14.40;99.90
18426;DHT22;9340;48.756;9.226;2023-05-16T13:18:39;14.40;99.90
18426;DHT22;9340;48.756;9.226;2023-05-16T13:21:05;14.40;99.90
18426;DHT22;9340;48.756;9.226;2023-05-16T13:23:32;14.30;99.90
18426;DHT22;9340;48.756;9.226;2023-05-16T13:25:59;14.40;99.90
18426;DHT22;9340;48.756;9.226;2023-05-16T13:28:25;14.30;99.90
18426;DHT22;9340;48.756;9.226;2023-05-16T13:30:53;14.30;99.90
18426;DHT22;9340;48.756;9.226;2023-05-16T13:33:21;14.30;99.90
18426;DHT22;9340;48.756;9.226;2023-05-16T13:35:49;14.20;99.90
18426;DHT22;9340;48.756;9.226;2023-05-16T13:38:15;14.20;99.90
18426;DHT22;9340;48.756;9.226;2023-05-16T13:40:43;14.30;99.90
18426;DHT22;9340;48.756;9.226;2023-05-16T13:43:09;14.30;99.90
18426;DHT22;9340;48.756;9.226;2023-05-16T13:45:38;14.30;99.90
18426;DHT22;9340;48.756;9.226;2023-05-16T13:48:07;14.40;99.90
18426;DHT22;9340;48.756;9.226;2023-05-16T13:50:33;14.60;99.90
18426;DHT22;9340;48.756;9.226;2023-05-16T13:53:00;14.70;99.90
18426;DHT22;9340;48.756;9.226;2023-05-16T13:55:27;14.60;99.90
18426;DHT22;9340;48.756;9.226;2023-05-16T13:57:54;14.50;99.90
18426;DHT22;9340;48.756;9.226;2023-05-16T14:00:20;14.20;99.90
18426;DHT22;9340;48.756;9.226;2023-05-16T14:02:47;14.00;99.90
18426;DHT22;9340;48.756;9.226;2023-05-16T14:05:15;14.20;99.90
18426;DHT22;9340;48.756;9.226;2023-05-16T14:07:42;14.40;99.90
18426;DHT22;9340;48.756;9.226;2023-05-16T14:10:09;14.60;99.90
18426;DHT22;9340;48.756;9.226;2023-05-16T14:12:35;14.60;99.90
18426;DHT22;9340;48.756;9.226;2023-05-16T14:15:03;14.70;99.90
18426;DHT22;9340;48.756;9.226;2023-05-16T14:17:30;14.50;99.90
18426;DHT22;9340;48.756;9.226;2023-05-16T14:19:57;14.50;99.90
18426;DHT22;9340;48.756;9.226;2023-05-16T14:22:25;14.30;99.90
18426;DHT22;9340;48.756;9.226;2023-05-16T14:24:52;14.10;99.90
18426;DHT22;9340;48.756;9.226;2023-05-16T14:27:19;14.10;99.90
18426;DHT22;9340;48.756;9.226;2023-05-16T14:29:46;14.20;99.90
18426;DHT22;9340;48.756;9.226;2023-05-16T14:32:13;14.30;99.90
18426;DHT22;9340;48.756;9.226;2023-05-16T14:34:39;14.20;99.90
18426;DHT22;9340;48.756;9.226;2023-05-16T14:37:06;14.20;99.90
18426;DHT22;9340;48.756;9.226;2023-05-16T14:39:36;14.20;99.90
18426;DHT22;9340;48.756;9.226;2023-05-16T14:42:03;14.10;99.90
18426;DHT22;9340;48.756;9.226;2023-05-16T14:44:30;14.20;99.90
18426;DHT22;9340;48.756;9.226;2023-05-16T14:46:56;14.30;99.90
18426;DHT22;9340;48.756;9.226;2023-05-16T14:49:23;14.30;99.90
18426;DHT22;9340;48.756;9.226;2023-05-16T14:51:50;14.40;99.90
18426;DHT22;9340;48.756;9.226;2023-05-16T14:54:16;14.40;99.90
18426;DHT22;9340;48.756;9.226;2023-05-16T14:56:45;14.70;99.90
18426;DHT22;9340;48.756;9.226;2023-05-16T14:59:12;14.80;99.90
18426;DHT22;9340;48.756;9.226;2023-05-16T15:01:39;14.90;99.90
18426;DHT22;9340;48.756;9.226;2023-05-16T15:04:05;15.10;99.90
18426;DHT22;9340;48.756;9.226;2023-05-16T15:06:32;15.20;99.90
18426;DHT22;9340;48.756;9.226;2023-05-16T15:08:59;15.20;99.90
18426;DHT22;9340;48.756;9.226;2023-05-16T15:11:27;15.30;99.90
18426;DHT22;9340;48.756;9.226;2023-05-16T15:13:55;15.20;99.90
18426;DHT22;9340;48.756;9.226;2023-05-16T15:16:22;15.20;99.90
18426;DHT22;9340;48.756;9.226;2023-05-16T15:18:48;15.10;99.90
18426;DHT22;9340;48.756;9.226;2023-05-16T15:21:15;15.00;99.90
18426;DHT22;9340;48.756;9.226;2023-05-16T15:23:42;15.00;99.90
18426;DHT22;9340;48.756;9.226;2023-05-16T15:26:08;15.00;99.90
18426;DHT22;9340;48.756;9.226;2023-05-16T15:28:35;14.90;99.90
18426;DHT22;9340;48.756;9.226;2023-05-16T15:31:03;15.00;99.90
18426;DHT22;9340;48.756;9.226;2023-05-16T15:33:30;15.00;99.90
18426;DHT22;9340;48.756;9.226;2023-05-16T15:35:57;14.90;99.90
18426;DHT22;9340;48.756;9.226;2023-05-16T15:38:23;14.90;99.90
18426;DHT22;9340;48.756;9.226;2023-05-16T15:40:50;14.90;99.90
18426;DHT22;9340;48.756;9.226;2023-05-16T15:43:17;14.90;99.90
18426;DHT22;9340;48.756;9.226;2023-05-16T15:45:44;15.00;99.90
18426;DHT22;9340;48.756;9.226;2023-05-16T15:48:12;15.10;99.90